Time;durP1;ratioP1;P1;durP2;ratioP2;P2;SDS_P1;SDS_P2;PMS_P1;PMS_P2;Temp;Humidity;BMP_temperature;BMP_pressure;BME280_temperature;BME280_humidity;BME280_pressure;Samples;Min_cycle;Max_cycle;Signal;HPM_P1;HPM_P2
2023/01/12 00:01:16;;;;;;;14.82;2.60;;;8.60;99.90;;;;;;6130175;23;20022;-83
2023/01/12 00:03:42;;;;;;;20.23;3.05;;;8.60;99.90;;;;;;6129292;23;20017;-82
2023/01/12 00:06:08;;;;;;;12.57;2.72;;;8.60;99.90;;;;;;6104517;23;20022;-84
2023/01/12 00:08:34;;;;;;;16.98;2.65;;;8.60;99.90;;;;;;6129807;23;20021;-81
2023/01/12 00:11:00;;;;;;;20.55;3.83;;;8.60;99.90;;;;;;6131129;23;20089;-83
2023/01/12 00:13:28;;;;;;;17.48;2.63;;;8.60;99.90;;;;;;6155136;23;20017;-82
2023/01/12 00:18:46;;;;;;;15.93;2.92;;;8.60;99.90;;;;;;6129573;23;20026;-82
2023/01/12 00:21:12;;;;;;;21.00;3.20;;;8.50;99.90;;;;;;6104840;23;20097;-82
2023/01/12 00:23:38;;;;;;;20.45;3.58;;;8.50;99.90;;;;;;6128404;23;20009;-82
2023/01/12 00:26:07;;;;;;;14.18;2.97;;;8.40;99.90;;;;;;6104847;23;20017;-82
2023/01/12 00:28:34;;;;;;;22.08;3.67;;;8.40;99.90;;;;;;6129987;23;20013;-83
2023/01/12 00:31:01;;;;;;;20.33;3.05;;;8.40;99.90;;;;;;6129216;23;20439;-83
2023/01/12 00:33:27;;;;;;;19.38;3.35;;;8.40;99.90;;;;;;6105260;23;20021;-82
2023/01/12 00:35:53;;;;;;;17.83;3.58;;;8.40;99.90;;;;;;6128100;23;20028;-85
2023/01/12 00:38:18;;;;;;;19.08;3.45;;;8.40;99.90;;;;;;6105259;23;20014;-82
2023/01/12 00:40:44;;;;;;;17.00;2.58;;;8.40;99.90;;;;;;6129112;23;20446;-82
2023/01/12 00:45:54;;;;;;;21.90;3.58;;;8.40;99.90;;;;;;6128895;23;20021;-81
2023/01/12 00:48:20;;;;;;;23.23;3.58;;;8.50;99.90;;;;;;6106290;23;20010;-84
2023/01/12 00:50:45;;;;;;;20.35;3.78;;;8.50;99.90;;;;;;6105309;23;20406;-83
2023/01/12 00:53:12;;;;;;;21.67;3.70;;;8.50;99.90;;;;;;6129282;23;20013;-82
2023/01/12 00:55:37;;;;;;;17.08;3.13;;;8.50;99.90;;;;;;6103797;23;20014;-82
2023/01/12 00:58:03;;;;;;;17.67;3.67;;;8.50;99.90;;;;;;6128809;23;20508;-82
2023/01/12 01:00:29;;;;;;;21.02;4.15;;;8.50;99.90;;;;;;6128916;23;20021;-82
2023/01/12 01:02:55;;;;;;;17.60;3.42;;;8.60;99.90;;;;;;6128548;23;20116;-84
2023/01/12 01:05:21;;;;;;;19.08;3.08;;;9.60;99.90;;;;;;6104269;23;20009;-83
2023/01/12 01:07:46;;;;;;;18.35;3.13;;;8.60;99.90;;;;;;6105139;23;20160;-82
2023/01/12 01:10:13;;;;;;;20.90;3.00;;;8.60;99.90;;;;;;6129680;23;20535;-82
2023/01/12 01:12:40;;;;;;;21.33;3.47;;;8.60;99.90;;;;;;6104291;23;20343;-83
2023/01/12 01:15:06;;;;;;;14.77;2.58;;;8.60;99.90;;;;;;6129388;23;20060;-82
2023/01/12 01:17:32;;;;;;;23.63;3.33;;;8.60;99.90;;;;;;6129508;23;20020;-82
2023/01/12 01:19:57;;;;;;;20.88;3.83;;;8.60;99.90;;;;;;6104838;23;20022;-81
2023/01/12 01:22:23;;;;;;;22.10;3.17;;;8.80;99.90;;;;;;6105279;23;20454;-85
2023/01/12 01:24:48;;;;;;;29.52;4.47;;;8.60;99.90;;;;;;6106206;23;20479;-87
2023/01/12 01:27:14;;;;;;;19.67;2.95;;;8.60;99.90;;;;;;6105970;23;20045;-82
2023/01/12 01:29:40;;;;;;;14.13;3.05;;;8.70;99.90;;;;;;6129979;23;20013;-82
2023/01/12 01:32:06;;;;;;;27.50;4.35;;;8.60;99.90;;;;;;6106349;23;20017;-83
2023/01/12 01:34:32;;;;;;;24.73;4.10;;;8.60;99.90;;;;;;6132555;23;20009;-83
2023/01/12 01:36:58;;;;;;;22.85;3.40;;;8.60;99.90;;;;;;6129964;23;20353;-82
2023/01/12 01:39:24;;;;;;;16.88;3.22;;;8.50;99.90;;;;;;6104476;23;20100;-84
2023/01/12 01:41:50;;;;;;;23.33;3.60;;;8.50;99.90;;;;;;6107053;23;20478;-82
2023/01/12 01:44:27;;;;;;;18.48;3.40;;;8.50;99.90;;;;;;6132011;23;20014;-82
2023/01/12 01:47:00;;;;;;;23.02;3.30;;;8.50;99.90;;;;;;6104392;23;20017;-81
2023/01/12 01:49:47;;;;;;;17.88;3.50;;;8.50;99.90;;;;;;6106072;23;20022;-82
2023/01/12 01:52:18;;;;;;;24.60;4.20;;;8.50;99.90;;;;;;6106248;23;20014;-82
2023/01/12 01:55:13;;;;;;;20.80;3.40;;;8.50;99.90;;;;;;6130561;23;20018;-82
2023/01/12 01:57:49;;;;;;;19.20;2.95;;;8.50;99.90;;;;;;6104774;23;20013;-84
2023/01/12 02:00:15;;;;;;;16.88;3.55;;;8.90;99.90;;;;;;6128844;23;20017;-82
2023/01/12 02:02:45;;;;;;;20.17;3.63;;;8.50;99.90;;;;;;6105020;23;20068;-84
2023/01/12 02:05:17;;;;;;;23.45;4.43;;;8.60;99.90;;;;;;6104612;23;20072;-83
2023/01/12 02:07:43;;;;;;;19.98;3.33;;;8.50;99.90;;;;;;6130249;23;20016;-83
2023/01/12 02:10:10;;;;;;;20.05;3.05;;;8.60;99.90;;;;;;6130515;23;20354;-83
2023/01/12 02:19:06;;;;;;;19.15;3.85;;;8.60;99.90;;;;;;6130195;23;20105;-82
2023/01/12 02:22:08;;;;;;;15.75;3.33;;;8.50;99.90;;;;;;6132465;23;20092;-82
2023/01/12 02:24:40;;;;;;;20.38;3.20;;;8.50;99.90;;;;;;6106712;23;20035;-83
2023/01/12 02:27:46;;;;;;;22.23;4.32;;;8.50;99.90;;;;;;6130295;23;20014;-86
2023/01/12 02:30:28;;;;;;;20.63;4.35;;;8.50;99.90;;;;;;6106002;23;20100;-83
2023/01/12 02:33:11;;;;;;;23.15;3.92;;;8.50;99.90;;;;;;6108140;23;20088;-82
2023/01/12 02:36:02;;;;;;;18.27;3.25;;;8.50;99.90;;;;;;6105037;23;20017;-82
2023/01/12 02:38:44;;;;;;;24.63;4.03;;;8.50;99.90;;;;;;6105548;23;20038;-86
2023/01/12 02:44:28;;;;;;;20.73;3.65;;;8.60;99.90;;;;;;6129980;23;20061;-83
2023/01/12 02:46:57;;;;;;;22.63;3.75;;;8.60;99.90;;;;;;6106560;23;20072;-84
2023/01/12 02:49:27;;;;;;;19.05;4.00;;;8.60;99.90;;;;;;6106339;23;20009;-81
2023/01/12 02:52:07;;;;;;;25.92;4.18;;;8.60;99.90;;;;;;6107774;23;20044;-85
2023/01/12 02:54:35;;;;;;;19.77;3.38;;;8.60;99.90;;;;;;6106078;23;20021;-85
2023/01/12 02:57:05;;;;;;;19.10;3.97;;;8.60;99.90;;;;;;6106403;23;20116;-82
2023/01/12 02:59:37;;;;;;;27.05;3.88;;;8.70;99.90;;;;;;6131107;23;20107;-85
2023/01/12 03:02:17;;;;;;;22.88;4.85;;;8.80;99.90;;;;;;6106351;23;20017;-84
2023/01/12 03:04:44;;;;;;;28.75;5.00;;;8.70;99.90;;;;;;6109675;23;20025;-84
2023/01/12 03:07:13;;;;;;;20.27;3.45;;;8.70;99.90;;;;;;6107926;23;20434;-82
2023/01/12 03:09:44;;;;;;;20.52;3.83;;;8.70;99.90;;;;;;6133159;23;20009;-83
2023/01/12 03:12:15;;;;;;;18.10;3.90;;;8.70;99.90;;;;;;6131913;23;20065;-83
2023/01/12 03:14:45;;;;;;;18.65;4.03;;;9.30;99.90;;;;;;6131382;23;20084;-85
2023/01/12 03:17:18;;;;;;;19.10;4.55;;;8.80;99.90;;;;;;6107995;23;20020;-86
2023/01/12 03:19:44;;;;;;;19.17;3.95;;;8.80;99.90;;;;;;6131476;23;20346;-85
2023/01/12 03:22:13;;;;;;;18.65;3.47;;;8.80;99.90;;;;;;6107014;23;20020;-87
2023/01/12 03:24:44;;;;;;;22.42;3.60;;;9.10;99.90;;;;;;6132411;23;20025;-86
2023/01/12 03:27:26;;;;;;;15.20;3.47;;;8.80;99.90;;;;;;6130941;23;20014;-83
2023/01/12 03:30:01;;;;;;;16.77;3.20;;;8.90;99.90;;;;;;6107031;23;20018;-83
2023/01/12 03:32:27;;;;;;;15.95;4.07;;;8.80;99.90;;;;;;6107343;23;20093;-83
2023/01/12 03:34:53;;;;;;;19.70;3.22;;;8.80;99.90;;;;;;6129993;23;20017;-83
2023/01/12 03:37:24;;;;;;;16.23;3.45;;;8.90;99.90;;;;;;6130992;23;20021;-83
2023/01/12 03:40:22;;;;;;;17.13;2.72;;;8.80;99.90;;;;;;6130568;23;20354;-83
2023/01/12 03:43:14;;;;;;;15.63;2.85;;;8.90;99.90;;;;;;6106631;23;20014;-83
2023/01/12 03:46:15;;;;;;;14.45;2.88;;;8.80;99.90;;;;;;6104817;23;20013;-82
2023/01/12 03:48:59;;;;;;;11.43;2.22;;;8.90;99.90;;;;;;6106105;23;20024;-83
2023/01/12 03:51:33;;;;;;;11.23;2.53;;;9.00;99.90;;;;;;6128891;23;20040;-83
2023/01/12 03:53:59;;;;;;;8.07;1.77;;;8.80;99.90;;;;;;6104361;23;20096;-84
2023/01/12 03:56:28;;;;;;;10.30;1.83;;;8.80;99.90;;;;;;6105243;23;20052;-83
2023/01/12 03:58:54;;;;;;;10.23;2.45;;;8.80;99.90;;;;;;6105890;23;20022;-83
2023/01/12 04:01:20;;;;;;;13.50;2.22;;;8.90;99.90;;;;;;6104363;23;20482;-82
2023/01/12 04:03:45;;;;;;;11.27;2.08;;;8.80;99.90;;;;;;6104481;23;20021;-83
2023/01/12 04:06:13;;;;;;;10.00;2.45;;;8.80;99.90;;;;;;6128581;23;20476;-83
2023/01/12 04:08:43;;;;;;;10.52;2.58;;;8.90;99.90;;;;;;6105693;23;20021;-83
2023/01/12 04:13:52;;;;;;;11.82;2.15;;;8.90;99.90;;;;;;6128961;23;20083;-83
2023/01/12 04:16:18;;;;;;;6.65;1.63;;;8.90;99.90;;;;;;6128638;23;20017;-83
2023/01/12 04:18:44;;;;;;;9.00;2.17;;;8.80;99.90;;;;;;6104656;23;20021;-84
2023/01/12 04:22:41;;;;;;;9.35;2.75;;;8.90;99.90;;;;;;6128715;23;20022;-83
2023/01/12 04:23:59;;;;;;;8.18;1.70;;;8.90;99.90;;;;;;6126237;23;20056;-83
2023/01/12 04:26:25;;;;;;;10.75;2.22;;;9.40;99.90;;;;;;6103934;23;20087;-82
2023/01/12 04:28:52;;;;;;;7.20;1.38;;;8.90;99.90;;;;;;6128377;23;20740;-83
2023/01/12 04:31:18;;;;;;;7.72;0.98;;;9.10;99.90;;;;;;6080184;23;20076;-83
2023/01/12 04:33:43;;;;;;;5.20;0.95;;;8.90;99.90;;;;;;6128564;23;20022;-82
2023/01/12 04:36:10;;;;;;;8.43;1.38;;;8.90;99.90;;;;;;6103925;23;20021;-83
2023/01/12 04:38:39;;;;;;;6.57;1.35;;;8.90;99.90;;;;;;6104584;23;20080;-83
2023/01/12 04:41:06;;;;;;;8.95;1.20;;;8.90;99.90;;;;;;6104222;23;20021;-84
2023/01/12 04:43:32;;;;;;;6.72;1.05;;;8.90;99.90;;;;;;6104594;23;20010;-84
2023/01/12 04:45:57;;;;;;;6.25;1.15;;;8.80;99.90;;;;;;6127851;23;20571;-83
2023/01/12 04:48:23;;;;;;;6.97;1.10;;;8.80;99.90;;;;;;6104471;23;20067;-82
2023/01/12 04:50:49;;;;;;;9.90;1.52;;;8.90;99.90;;;;;;6105229;23;20102;-82
2023/01/12 04:53:15;;;;;;;7.35;1.35;;;8.00;99.90;;;;;;6104290;23;20367;-83
2023/01/12 04:55:42;;;;;;;7.28;1.35;;;8.80;99.90;;;;;;6128422;23;20141;-83
2023/01/12 04:58:08;;;;;;;8.40;1.60;;;8.80;99.90;;;;;;6128768;23;20088;-82
2023/01/12 05:00:34;;;;;;;3.60;0.80;;;8.70;99.90;;;;;;6127534;23;20044;-82
2023/01/12 05:03:01;;;;;;;3.60;0.90;;;8.80;99.90;;;;;;6128234;23;20013;-84
2023/01/12 05:05:27;;;;;;;4.22;0.60;;;8.70;99.90;;;;;;6127127;23;20060;-81
2023/01/12 05:10:38;;;;;;;7.95;1.02;;;8.70;99.90;;;;;;6127604;23;20025;-82
2023/01/12 05:13:04;;;;;;;7.22;1.10;;;8.70;99.90;;;;;;6103066;23;20014;-85
2023/01/12 05:15:29;;;;;;;3.75;0.73;;;8.70;99.90;;;;;;6127635;23;20126;-83
2023/01/12 05:17:55;;;;;;;3.20;0.40;;;8.70;99.90;;;;;;6129402;23;20389;-81
2023/01/12 05:20:49;;;;;;;3.30;0.77;;;8.60;99.90;;;;;;6096155;23;20025;-86
2023/01/12 05:27:21;;;;;;;4.93;1.02;;;8.60;99.90;;;;;;6020928;23;20518;-86
2023/01/12 05:29:48;;;;;;;3.80;0.70;;;8.60;99.90;;;;;;6005034;23;20026;-83
2023/01/12 05:36:48;;;;;;;4.90;0.70;;;8.50;99.90;;;;;;6030545;23;20010;-85
2023/01/12 05:39:14;;;;;;;3.10;0.90;;;8.50;99.90;;;;;;6003614;23;20041;-82
2023/01/12 05:43:48;;;;;;;4.47;0.85;;;8.50;99.90;;;;;;6072061;23;20104;-86
2023/01/12 05:44:56;;;;;;;3.05;0.50;;;8.60;99.90;;;;;;6127675;23;20052;-86
2023/01/12 05:47:21;;;;;;;4.47;1.00;;;8.70;99.90;;;;;;6103011;23;20014;-82
2023/01/12 05:53:48;;;;;;;4.63;0.60;;;8.60;99.90;;;;;;6096043;23;20445;-86
2023/01/12 05:57:02;;;;;;;3.42;0.80;;;8.60;99.90;;;;;;6096875;23;20014;-86
2023/01/12 05:59:50;;;;;;;4.40;0.70;;;8.60;99.90;;;;;;6003480;23;20019;-86
2023/01/12 06:02:20;;;;;;;5.07;0.73;;;8.60;99.90;;;;;;5985946;23;20082;-84
2023/01/12 06:04:48;;;;;;;3.17;0.30;;;8.60;99.90;;;;;;6082408;23;20014;-88
2023/01/12 06:07:15;;;;;;;1.63;0.40;;;8.60;99.90;;;;;;6127352;23;20026;-85
2023/01/12 06:09:42;;;;;;;3.47;0.50;;;8.60;99.90;;;;;;6100344;23;20084;-84
2023/01/12 06:18:31;;;;;;;2.97;0.50;;;8.70;99.90;;;;;;6147608;23;19939;-87
2023/01/12 06:20:58;;;;;;;2.03;0.40;;;8.70;99.90;;;;;;6107010;23;20028;-83
2023/01/12 06:23:24;;;;;;;2.40;0.38;;;8.80;99.90;;;;;;6101382;23;20037;-83
2023/01/12 06:25:49;;;;;;;3.95;0.50;;;8.80;99.90;;;;;;6124457;23;20017;-83
2023/01/12 06:28:21;;;;;;;3.80;0.50;;;8.80;99.90;;;;;;6125855;23;20021;-86
2023/01/12 06:31:03;;;;;;;1.50;0.30;;;8.90;99.90;;;;;;6100690;23;20160;-87
2023/01/12 06:33:35;;;;;;;2.25;0.43;;;8.90;99.90;;;;;;6122538;23;20018;-85
2023/01/12 06:36:04;;;;;;;1.98;0.38;;;8.90;99.90;;;;;;6149890;23;20013;-87
2023/01/12 06:38:33;;;;;;;1.92;0.40;;;8.90;99.90;;;;;;6122668;23;20060;-86
2023/01/12 06:48:59;;;;;;;2.10;0.30;;;9.00;99.90;;;;;;6062505;23;20079;-88
2023/01/12 06:52:12;;;;;;;2.20;0.30;;;9.10;99.90;;;;;;6012377;23;20082;-87
2023/01/12 06:54:56;;;;;;;4.22;0.45;;;9.10;99.90;;;;;;6010008;23;20058;-85
2023/01/12 06:57:22;;;;;;;2.95;0.30;;;9.10;99.90;;;;;;6035768;23;20053;-84
2023/01/12 07:00:21;;;;;;;2.17;0.40;;;9.20;99.90;;;;;;6012638;23;20411;-86
2023/01/12 07:03:52;;;;;;;1.60;0.35;;;9.20;99.90;;;;;;6018849;23;20391;-87
2023/01/12 07:06:44;;;;;;;1.15;0.20;;;9.20;99.90;;;;;;6009840;23;20022;-86
2023/01/12 07:10:05;;;;;;;3.00;0.40;;;9.20;99.90;;;;;;6004425;23;20015;-87
2023/01/12 07:12:50;;;;;;;1.83;0.50;;;9.20;99.90;;;;;;6008465;23;20058;-86
2023/01/12 07:15:16;;;;;;;1.38;0.30;;;9.20;99.90;;;;;;6028793;23;20030;-85
2023/01/12 07:17:42;;;;;;;1.95;0.63;;;9.20;99.90;;;;;;6037222;23;20017;-84
2023/01/12 07:20:08;;;;;;;0.90;0.32;;;9.20;99.90;;;;;;6124712;23;20089;-83
2023/01/12 07:22:34;;;;;;;1.95;0.57;;;9.30;99.90;;;;;;6101665;23;20013;-84
2023/01/12 07:24:59;;;;;;;4.13;0.80;;;9.30;99.90;;;;;;6125219;23;20016;-85
2023/01/12 07:27:25;;;;;;;3.13;1.05;;;9.20;99.90;;;;;;6125984;23;20018;-84
2023/01/12 07:29:50;;;;;;;1.20;0.70;;;9.30;99.90;;;;;;6100799;23;20013;-85
2023/01/12 07:32:16;;;;;;;1.80;0.73;;;9.30;99.90;;;;;;6101845;23;20016;-83
2023/01/12 07:34:41;;;;;;;4.10;0.82;;;9.30;99.90;;;;;;6101165;23;20045;-83
2023/01/12 07:37:07;;;;;;;2.15;1.23;;;9.30;99.90;;;;;;6100693;23;20513;-83
2023/01/12 07:40:01;;;;;;;3.95;1.55;;;9.40;99.90;;;;;;6096963;23;20037;-87
2023/01/12 07:43:05;;;;;;;3.47;1.30;;;9.60;99.90;;;;;;6100572;23;20022;-87
2023/01/12 07:46:25;;;;;;;1.98;1.55;;;9.40;99.90;;;;;;6150075;23;20017;-87
2023/01/12 07:49:08;;;;;;;;;;;9.40;99.90;;;;;;6125467;23;20028;-87
2023/01/12 07:51:33;;;;;;;5.07;1.40;;;9.40;99.90;;;;;;6104566;23;19912;-86
2023/01/12 07:53:59;;;;;;;5.22;1.40;;;9.50;99.90;;;;;;6104924;23;20013;-87
2023/01/12 07:56:25;;;;;;;5.28;1.38;;;9.50;99.90;;;;;;6129017;23;20504;-87
2023/01/12 07:58:50;;;;;;;6.30;1.83;;;9.50;99.90;;;;;;6103689;23;20020;-86
2023/01/12 08:01:16;;;;;;;9.82;1.42;;;9.60;99.90;;;;;;6103103;23;20080;-86
2023/01/12 08:03:41;;;;;;;10.35;1.73;;;9.60;99.90;;;;;;6129350;23;20014;-86
2023/01/12 08:06:07;;;;;;;10.95;2.05;;;9.70;99.90;;;;;;6101676;23;20025;-86
2023/01/12 08:08:34;;;;;;;12.63;1.75;;;9.70;99.90;;;;;;6128335;23;20014;-87
2023/01/12 08:11:05;;;;;;;10.07;1.90;;;9.70;99.90;;;;;;6129071;23;20068;-88
2023/01/12 08:13:30;;;;;;;17.77;3.08;;;9.80;99.90;;;;;;6129963;23;20439;-87
2023/01/12 08:16:03;;;;;;;22.00;4.03;;;9.90;99.90;;;;;;6128076;23;20032;-86
2023/01/12 08:18:41;;;;;;;24.45;3.40;;;9.90;99.90;;;;;;6128435;23;20064;-88
2023/01/12 08:21:13;;;;;;;26.35;4.13;;;9.90;99.90;;;;;;6152926;23;20013;-87
2023/01/12 08:23:43;;;;;;;22.00;5.22;;;10.00;99.90;;;;;;6102821;23;20014;-87
2023/01/12 08:26:27;;;;;;;29.77;3.70;;;10.00;99.90;;;;;;6102555;23;20045;-87
2023/01/12 08:29:11;;;;;;;27.25;4.18;;;10.30;99.90;;;;;;6101333;23;20009;-86
2023/01/12 08:31:42;;;;;;;37.90;6.70;;;10.20;99.90;;;;;;6127430;23;20411;-85
2023/01/12 08:34:45;;;;;;;24.02;4.65;;;10.20;99.90;;;;;;6102490;23;20363;-86
2023/01/12 08:41:41;;;;;;;29.73;5.05;;;10.30;99.90;;;;;;6042532;23;20446;-85
2023/01/12 08:44:09;;;;;;;33.25;6.03;;;10.40;99.90;;;;;;6020336;23;20053;-84
2023/01/12 08:46:38;;;;;;;25.27;4.22;;;10.40;99.90;;;;;;6063161;23;20052;-83
2023/01/12 08:49:08;;;;;;;29.50;4.75;;;10.40;99.90;;;;;;6104989;23;20017;-86
2023/01/12 08:51:38;;;;;;;28.95;5.18;;;11.00;99.90;;;;;;6107492;23;20037;-84
2023/01/12 08:54:20;;;;;;;32.72;5.65;;;10.40;99.90;;;;;;6108443;23;20040;-86
2023/01/12 08:56:46;;;;;;;31.20;5.05;;;10.40;99.90;;;;;;6102878;23;20021;-86
2023/01/12 08:59:18;;;;;;;24.90;5.35;;;10.50;99.90;;;;;;6129843;23;20018;-85
2023/01/12 09:01:43;;;;;;;28.65;4.43;;;10.50;99.90;;;;;;6080757;23;20024;-84
2023/01/12 09:04:09;;;;;;;32.90;4.55;;;10.50;99.90;;;;;;6105434;23;20354;-84
2023/01/12 09:06:40;;;;;;;29.45;4.35;;;10.50;99.90;;;;;;6105684;23;20016;-84
2023/01/12 09:09:11;;;;;;;33.40;6.30;;;10.50;99.90;;;;;;6103859;23;20540;-84
2023/01/12 09:11:38;;;;;;;27.08;4.68;;;10.50;99.90;;;;;;6103229;23;20103;-84
2023/01/12 09:14:05;;;;;;;25.80;4.63;;;10.50;99.90;;;;;;6104771;23;20890;-84
2023/01/12 09:16:32;;;;;;;29.10;4.43;;;10.60;99.90;;;;;;6105624;23;20017;-85
2023/01/12 09:18:58;;;;;;;24.17;3.88;;;10.60;99.90;;;;;;6108767;23;20017;-83
2023/01/12 09:21:26;;;;;;;24.25;4.32;;;10.60;99.90;;;;;;6108731;23;20032;-83
2023/01/12 09:23:53;;;;;;;21.42;4.15;;;10.60;99.90;;;;;;6109419;23;20049;-82
2023/01/12 09:26:25;;;;;;;27.23;4.28;;;10.60;99.90;;;;;;6106754;23;20016;-85
2023/01/12 09:28:51;;;;;;;20.35;3.50;;;10.70;99.90;;;;;;6109874;23;20096;-83
2023/01/12 09:31:19;;;;;;;25.52;4.65;;;10.70;99.90;;;;;;6111660;23;20062;-86
2023/01/12 09:33:45;;;;;;;21.25;4.25;;;10.80;99.90;;;;;;6107186;23;20104;-81
2023/01/12 09:36:17;;;;;;;20.58;3.58;;;10.80;99.90;;;;;;6131684;23;20044;-86
2023/01/12 09:38:44;;;;;;;16.63;3.53;;;10.80;99.90;;;;;;6109552;23;20018;-84
2023/01/12 09:47:02;;;;;;;25.38;4.00;;;10.90;99.90;;;;;;6135104;23;20024;-86
2023/01/12 09:49:34;;;;;;;25.88;4.18;;;10.90;99.90;;;;;;6110519;23;20052;-81
2023/01/12 09:52:16;;;;;;;24.13;4.57;;;10.90;99.90;;;;;;6137240;23;20014;-83
2023/01/12 09:58:43;;;;;;;20.23;4.70;;;10.90;99.90;;;;;;6157961;23;20032;-86
2023/01/12 10:01:47;;;;;;;24.50;4.75;;;11.00;99.90;;;;;;6132808;23;20068;-84
2023/01/12 10:04:25;;;;;;;21.05;3.75;;;11.00;99.90;;;;;;6132847;23;20033;-85
2023/01/12 10:07:11;;;;;;;19.88;3.60;;;11.10;99.90;;;;;;6132386;23;20014;-82
2023/01/12 10:09:50;;;;;;;18.25;3.25;;;11.10;99.90;;;;;;6121157;23;20059;-81
2023/01/12 10:13:28;;;;;;;19.33;4.13;;;11.10;99.90;;;;;;6092560;23;20026;-82
2023/01/12 10:16:52;;;;;;;17.58;2.85;;;11.10;99.90;;;;;;6071585;23;20025;-81
2023/01/12 10:20:01;;;;;;;21.60;3.90;;;11.20;99.90;;;;;;6069777;23;20021;-82
2023/01/12 10:23:23;;;;;;;24.35;4.97;;;11.00;99.90;;;;;;6028543;23;20022;-81
2023/01/12 10:26:45;;;;;;;21.52;3.95;;;11.20;99.90;;;;;;6079180;23;20025;-83
2023/01/12 10:30:28;;;;;;;19.00;3.75;;;11.30;99.90;;;;;;6097807;23;20053;-83
2023/01/12 10:33:41;;;;;;;16.83;3.70;;;11.60;99.90;;;;;;6053474;23;20054;-84
2023/01/12 10:36:39;;;;;;;19.13;3.70;;;11.80;99.90;;;;;;6084819;23;20391;-81
2023/01/12 10:39:34;;;;;;;11.80;3.30;;;11.80;99.90;;;;;;6101889;23;20071;-82
2023/01/12 10:45:56;;;;;;;14.95;3.08;;;11.90;99.90;;;;;;6134348;23;20052;-84
2023/01/12 10:48:23;;;;;;;13.55;3.05;;;11.90;99.90;;;;;;6108868;23;20014;-82
2023/01/12 10:51:40;;;;;;;18.83;3.80;;;11.90;99.90;;;;;;6128462;23;20029;-85
2023/01/12 10:54:12;;;;;;;;;;;11.90;99.90;;;;;;6128602;23;20025;-82
2023/01/12 10:57:02;;;;;;;15.20;3.03;;;11.90;99.90;;;;;;6135047;23;19919;-83
2023/01/12 10:59:38;;;;;;;16.15;2.88;;;11.80;99.90;;;;;;6106384;23;20018;-82
2023/01/12 11:02:07;;;;;;;15.13;3.35;;;11.80;99.90;;;;;;6109365;23;20022;-81
2023/01/12 11:04:53;;;;;;;15.68;3.40;;;12.70;99.90;;;;;;6133919;23;20060;-81
2023/01/12 11:07:25;;;;;;;16.20;3.17;;;11.70;99.90;;;;;;6133239;23;20332;-80
2023/01/12 11:10:38;;;;;;;20.23;4.18;;;11.70;99.90;;;;;;6086657;23;20010;-82
2023/01/12 11:13:35;;;;;;;21.90;5.20;;;11.60;99.90;;;;;;6075772;23;20018;-81
2023/01/12 11:16:23;;;;;;;19.27;4.28;;;11.70;99.90;;;;;;6106502;23;20013;-81
2023/01/12 11:19:04;;;;;;;21.40;3.53;;;11.70;99.90;;;;;;6133907;23;20009;-80
2023/01/12 11:21:41;;;;;;;23.00;4.63;;;11.70;99.90;;;;;;6132518;23;20084;-80
2023/01/12 11:24:25;;;;;;;18.42;4.30;;;11.70;99.90;;;;;;6106582;23;20021;-79
2023/01/12 11:27:03;;;;;;;19.95;3.35;;;11.70;99.90;;;;;;6107068;23;20498;-82
2023/01/12 11:29:53;;;;;;;22.73;3.70;;;11.70;99.90;;;;;;6132787;23;20040;-84
2023/01/12 11:32:46;;;;;;;20.80;3.42;;;11.70;99.90;;;;;;6131788;23;20343;-80
2023/01/12 11:35:20;;;;;;;14.63;3.85;;;11.70;99.90;;;;;;6107670;23;20833;-79
2023/01/12 11:37:47;;;;;;;18.48;2.88;;;11.70;99.90;;;;;;6107889;23;20045;-80
2023/01/12 11:40:40;;;;;;;17.48;3.53;;;11.70;99.90;;;;;;6132380;23;20060;-88
2023/01/12 11:46:30;;;;;;;15.38;3.55;;;11.80;99.90;;;;;;6132822;23;20024;-80
2023/01/12 11:49:10;;;;;;;17.35;3.33;;;11.70;99.90;;;;;;6130145;23;20009;-80
2023/01/12 11:51:37;;;;;;;17.95;3.33;;;11.80;99.90;;;;;;6107683;23;20014;-79
2023/01/12 11:54:05;;;;;;;20.33;3.47;;;11.80;99.90;;;;;;6133125;23;20010;-81
2023/01/12 11:57:11;;;;;;;23.75;4.13;;;11.80;99.90;;;;;;6107919;23;20098;-80
2023/01/12 12:00:16;;;;;;;18.15;3.90;;;11.80;99.90;;;;;;6132697;23;20013;-79
2023/01/12 12:03:04;;;;;;;15.40;3.20;;;11.80;99.90;;;;;;6133564;23;20028;-79
2023/01/12 12:05:43;;;;;;;16.92;3.30;;;11.80;99.90;;;;;;6133569;23;20084;-80
2023/01/12 12:09:07;;;;;;;18.33;3.40;;;11.80;99.90;;;;;;6134012;23;20009;-81
2023/01/12 12:11:59;;;;;;;19.40;4.30;;;11.80;99.90;;;;;;6087904;23;20029;-82
2023/01/12 12:14:46;;;;;;;16.45;3.47;;;11.80;99.90;;;;;;6132093;23;20392;-80
2023/01/12 12:17:33;;;;;;;22.50;4.00;;;11.80;99.90;;;;;;6107905;23;20445;-79
2023/01/12 12:20:12;;;;;;;18.15;3.47;;;11.80;99.90;;;;;;6131245;23;20044;-80
2023/01/12 12:22:49;;;;;;;18.35;2.97;;;11.70;99.90;;;;;;6131222;23;20089;-81
2023/01/12 12:25:56;;;;;;;16.00;3.05;;;11.70;99.90;;;;;;6130597;23;20316;-82
2023/01/12 12:29:00;;;;;;;19.73;4.25;;;11.60;99.90;;;;;;6131042;23;20017;-79
2023/01/12 12:32:01;;;;;;;19.95;4.32;;;11.60;99.90;;;;;;6130325;23;20040;-81
2023/01/12 12:34:42;;;;;;;19.15;4.40;;;11.60;99.90;;;;;;6130971;23;20013;-86
2023/01/12 12:37:29;;;;;;;17.67;3.53;;;11.60;99.90;;;;;;6105883;23;20024;-80
2023/01/12 12:40:13;;;;;;;22.95;4.38;;;11.50;99.90;;;;;;6131322;23;20017;-80
2023/01/12 12:45:59;;;;;;;20.25;3.65;;;11.60;99.90;;;;;;6013211;23;20047;-82
2023/01/12 12:48:44;;;;;;;26.40;4.70;;;11.40;99.90;;;;;;6120302;23;20027;-79
2023/01/12 12:51:11;;;;;;;24.10;4.53;;;11.40;99.90;;;;;;6129382;23;20049;-79
2023/01/12 12:53:40;;;;;;;27.10;4.95;;;11.40;99.90;;;;;;6129193;23;20363;-79
2023/01/12 12:56:12;;;;;;;24.90;4.72;;;11.30;99.90;;;;;;6130578;23;20013;-81
2023/01/12 12:58:49;;;;;;;27.38;4.13;;;11.30;99.90;;;;;;6130274;23;20014;-79
2023/01/12 13:01:23;;;;;;;25.25;4.97;;;11.30;99.90;;;;;;6105811;23;20104;-79
2023/01/12 13:03:56;;;;;;;22.75;4.00;;;11.30;99.90;;;;;;6105681;23;20386;-79
2023/01/12 13:06:34;;;;;;;25.63;4.68;;;11.30;99.90;;;;;;6131602;23;20045;-79
2023/01/12 13:09:26;;;;;;;24.48;3.90;;;11.40;99.90;;;;;;6106318;23;20010;-80
2023/01/12 13:11:56;;;;;;;23.60;4.00;;;11.40;99.90;;;;;;6157658;23;20017;-79
2023/01/12 13:14:28;;;;;;;24.00;4.88;;;11.50;99.90;;;;;;6131582;23;20025;-79
2023/01/12 13:16:57;;;;;;;20.80;3.95;;;11.50;99.90;;;;;;6128311;23;20013;-79
2023/01/12 13:19:44;;;;;;;27.13;3.60;;;11.50;99.90;;;;;;6129610;23;20017;-83
2023/01/12 13:22:27;;;;;;;20.33;3.90;;;11.50;99.90;;;;;;6130684;23;20013;-80
2023/01/12 13:24:55;;;;;;;26.95;5.75;;;11.50;99.90;;;;;;6131368;23;20088;-84
2023/01/12 13:27:45;;;;;;;19.30;4.90;;;11.60;99.90;;;;;;6103274;23;20096;-80
2023/01/12 13:30:29;;;;;;;21.17;3.63;;;11.60;99.90;;;;;;6129560;23;20021;-80
2023/01/12 13:33:10;;;;;;;26.05;5.15;;;11.60;99.90;;;;;;6130291;23;20014;-82
2023/01/12 13:35:37;;;;;;;23.40;4.63;;;11.60;99.90;;;;;;6130344;23;20790;-80
2023/01/12 13:38:43;;;;;;;22.52;4.90;;;11.50;99.90;;;;;;6129814;23;20013;-80
2023/01/12 13:41:12;;;;;;;23.73;5.23;;;11.60;99.90;;;;;;6104330;23;20025;-82
2023/01/12 13:43:44;;;;;;;20.27;3.78;;;11.50;99.90;;;;;;6128570;23;20020;-82
2023/01/12 13:46:19;;;;;;;22.77;4.13;;;11.50;99.90;;;;;;6129594;23;20044;-84
2023/01/12 13:48:49;;;;;;;;;;;11.50;99.90;;;;;;6105927;23;20013;-79
2023/01/12 13:51:24;;;;;;;24.25;5.20;;;11.50;99.90;;;;;;6131959;23;19935;-80
2023/01/12 13:54:09;;;;;;;18.67;4.13;;;11.40;99.90;;;;;;6131456;23;20077;-80
2023/01/12 13:56:34;;;;;;;18.40;3.83;;;11.40;99.90;;;;;;6109556;23;20025;-84
2023/01/12 13:59:03;;;;;;;23.52;4.40;;;11.40;99.90;;;;;;6112867;23;20021;-83
2023/01/12 14:01:34;;;;;;;26.10;4.00;;;11.40;99.90;;;;;;6112887;23;20052;-82
2023/01/12 14:04:20;;;;;;;21.92;3.78;;;11.30;99.90;;;;;;6112199;23;20014;-84
2023/01/12 14:07:01;;;;;;;17.38;3.83;;;11.40;99.90;;;;;;6112596;23;20088;-82
2023/01/12 14:09:54;;;;;;;18.80;3.47;;;11.30;99.90;;;;;;6138860;23;20020;-81
2023/01/12 14:12:40;;;;;;;22.67;5.28;;;11.30;99.90;;;;;;6111374;23;20013;-87
2023/01/12 14:19:25;;;;;;;19.13;3.53;;;11.30;99.90;;;;;;6136722;23;20021;-82
2023/01/12 14:22:19;;;;;;;25.13;3.35;;;11.20;99.90;;;;;;6163342;23;20017;-81
2023/01/12 14:24:47;;;;;;;14.93;2.75;;;11.20;99.90;;;;;;6137546;23;20064;-81
2023/01/12 14:27:23;;;;;;;17.05;2.50;;;11.60;99.90;;;;;;6114243;23;20013;-84
2023/01/12 14:29:49;;;;;;;11.95;2.03;;;11.20;99.90;;;;;;6113694;23;20014;-80
2023/01/12 14:32:17;;;;;;;12.13;1.50;;;11.10;99.90;;;;;;6114637;23;20021;-81
2023/01/12 14:34:51;;;;;;;13.57;2.45;;;11.10;99.90;;;;;;6091014;23;20025;-83
2023/01/12 14:37:38;;;;;;;13.65;2.13;;;11.10;99.90;;;;;;6138563;23;20017;-84
2023/01/12 14:40:04;;;;;;;17.33;2.50;;;11.10;99.90;;;;;;6112719;23;20345;-81
2023/01/12 14:48:28;;;;;;;9.57;1.30;;;11.10;99.90;;;;;;6137592;23;20069;-81
2023/01/12 14:51:16;;;;;;;7.72;1.30;;;11.00;99.90;;;;;;6108162;23;20017;-81
2023/01/12 14:53:44;;;;;;;11.90;2.00;;;11.10;99.90;;;;;;6132225;23;20577;-79